CDT,Max TemperatureF,Mean TemperatureF,Min TemperatureF,Max Dew PointF,MeanDew PointF,Min DewpointF,Max Humidity, Mean Humidity, Min Humidity, Max Sea Level PressureIn, Mean Sea Level PressureIn, Min Sea Level PressureIn, Max VisibilityMiles, Mean VisibilityMiles, Min VisibilityMiles, Max Wind SpeedMPH, Mean Wind SpeedMPH, Max Gust SpeedMPH,PrecipitationIn, CloudCover, Events, WindDirDegrees
2013-6-1,90,79,69,74,70,66,93,80,55,30.05,30.03,29.97,10,9,1,13,3,17,0.03,5,Rain,155
2013-6-2,91,81,71,72,70,64,94,80,42,30.01,29.96,29.86,10,8,2,10,1,,0.09,5,Rain-Thunderstorm,164
2013-6-3,89,78,69,74,70,66,94,82,55,29.98,29.93,29.89,10,6,0,22,2,28,1.03,3,Rain-Thunderstorm,155
2013-6-4,95,82,71,74,71,67,96,81,41,29.99,29.95,29.91,10,6,0,9,1,,0.00,3,Fog,167
2013-6-5,90,78,69,73,70,64,94,80,57,30.00,29.96,29.88,10,9,1,14,4,25,0.51,5,Rain-Thunderstorm,138
2013-6-6,88,76,66,71,67,64,94,81,55,29.87,29.82,29.74,10,10,8,8,4,,0.01,3,,8
2013-6-7,84,75,68,72,67,65,94,84,60,29.93,29.83,29.76,10,8,2,9,2,,0.08,3,Rain,262
2013-6-8,90,76,64,73,67,61,94,83,52,30.07,29.97,29.92,10,6,0,21,2,28,0.95,3,Rain-Thunderstorm,199
2013-6-9,79,75,71,72,70,68,94,87,74,30.07,30.03,29.96,10,9,4,14,5,20,0.48,5,Rain,164
2013-6-10,84,78,71,74,71,70,94,86,72,30.09,30.04,30.00,10,9,2,14,3,18,0.10,5,Rain,202
2013-6-11,93,83,73,75,73,70,94,81,48,30.13,30.07,30.02,10,6,1,6,2,,0.00,5,,233
2013-6-12,95,83,73,76,73,70,94,75,47,30.10,30.06,30.01,10,8,5,6,1,,0.00,2,,350
2013-6-13,96,85,75,74,72,69,90,66,44,30.04,29.96,29.86,10,10,7,10,2,,0.00,0,,269
2013-6-14,91,82,70,74,71,66,89,73,44,29.98,29.91,29.86,10,9,6,9,4,18,0.00,4,Thunderstorm,5
2013-6-15,93,80,66,73,67,63,90,66,38,30.06,30.01,29.97,10,10,7,8,3,,0.00,2,,114
2013-6-16,93,83,73,75,73,67,94,79,42,30.11,30.06,29.99,10,7,2,8,2,,0.00,5,,150
2013-6-17,91,82,73,76,74,70,94,82,55,30.04,30.01,29.96,10,8,1,14,3,22,0.37,5,Rain-Thunderstorm,181
2013-6-18,91,82,73,74,72,69,91,77,48,30.01,29.96,29.91,10,10,5,14,4,25,0.03,3,Rain-Thunderstorm,227
2013-6-19,84,78,72,73,71,69,94,86,63,30.06,30.01,29.96,10,7,1,8,2,,0.48,5,Rain-Thunderstorm,264
2013-6-20,91,79,68,72,69,65,94,80,50,30.13,30.08,30.04,10,6,0,9,1,,0.01,2,Fog,61
2013-6-21,91,80,70,72,70,68,94,74,50,30.17,30.12,30.09,10,9,2,9,3,,0.00,1,,68
2013-6-22,91,79,68,72,69,65,91,70,48,30.16,30.10,30.04,10,9,5,8,3,,0.00,1,,77
2013-6-23,88,78,69,73,71,68,94,81,61,30.15,30.11,30.06,10,10,2,14,3,22,0.00,4,Thunderstorm,133
2013-6-24,90,82,73,75,72,68,94,78,52,30.21,30.15,30.09,10,8,2,9,2,,0.12,4,Rain-Thunderstorm,193
2013-6-25,91,80,69,75,71,68,94,82,52,30.17,30.12,30.05,10,7,1,9,1,21,0.00,2,Thunderstorm,172
2013-6-26,93,82,71,75,72,70,94,77,50,30.11,30.05,29.99,10,8,1,12,2,20,0.01,3,Thunderstorm,211
2013-6-27,93,83,73,76,73,71,94,72,49,30.03,29.98,29.91,10,10,9,8,2,,0.00,0,,252
2013-6-28,95,84,75,77,73,70,94,78,55,29.93,29.85,29.78,10,9,2,18,4,34,0.16,3,Rain-Thunderstorm,181
2013-6-29,93,82,73,73,72,68,94,81,45,29.82,29.77,29.69,10,8,1,8,3,,0.18,4,Rain-Thunderstorm,206
2013-6-30,91,80,71,73,70,63,94,80,40,29.80,29.75,29.72,10,6,0,6,0,,0.00,5,Fog,39